sensor_id;sensor_type;location;lat;lon;timestamp;pressure;altitude;pressure_sealevel;temperature;humidity
3524;BME280;1776;53.330;11.498;2023-08-31T00:01:48;25051.09;;;-147.39;75.22
3524;BME280;1776;53.330;11.498;2023-08-31T00:04:14;25059.22;;;-147.39;75.52
3524;BME280;1776;53.330;11.498;2023-08-31T00:06:43;24996.19;;;-147.39;75.86
3524;BME280;1776;53.330;11.498;2023-08-31T00:09:10;25110.06;;;-147.39;75.56
3524;BME280;1776;53.330;11.498;2023-08-31T00:11:36;25118.22;;;-147.39;75.73
3524;BME280;1776;53.330;11.498;2023-08-31T00:14:01;25012.44;;;-147.39;75.74
3524;BME280;1776;53.330;11.498;2023-08-31T00:16:27;25000.25;;;-147.39;76.26
3524;BME280;1776;53.330;11.498;2023-08-31T00:18:53;25034.81;;;-147.39;76.02
3524;BME280;1776;53.330;11.498;2023-08-31T00:21:20;25038.88;;;-147.39;75.64
3524;BME280;1776;53.330;11.498;2023-08-31T00:23:45;25012.44;;;-147.39;75.90
3524;BME280;1776;53.330;11.498;2023-08-31T00:26:11;24945.34;;;-147.39;76.30
3524;BME280;1776;53.330;11.498;2023-08-31T00:28:36;24967.72;;;-147.39;76.86
3524;BME280;1776;53.330;11.498;2023-08-31T00:31:02;25002.28;;;-147.39;76.69
3524;BME280;1776;53.330;11.498;2023-08-31T00:33:30;24977.88;;;-147.39;77.58
3524;BME280;1776;53.330;11.498;2023-08-31T00:35:59;24967.72;;;-147.39;77.19
3524;BME280;1776;53.330;11.498;2023-08-31T00:38:26;24925.00;;;-147.39;77.48
3524;BME280;1776;53.330;11.498;2023-08-31T00:40:52;25081.59;;;-147.39;77.35
3524;BME280;1776;53.330;11.498;2023-08-31T00:43:18;24937.19;;;-147.39;77.46
3524;BME280;1776;53.330;11.498;2023-08-31T00:45:44;24900.59;;;-147.39;78.05
3524;BME280;1776;53.330;11.498;2023-08-31T00:48:11;24904.66;;;-147.39;77.55
3524;BME280;1776;53.330;11.498;2023-08-31T00:50:37;24912.81;;;-147.39;77.82
3524;BME280;1776;53.330;11.498;2023-08-31T00:53:03;24876.19;;;-147.39;78.34
3524;BME280;1776;53.330;11.498;2023-08-31T00:55:29;24843.66;;;-147.39;78.84
3524;BME280;1776;53.330;11.498;2023-08-31T00:57:54;24933.13;;;-147.39;78.68
3524;BME280;1776;53.330;11.498;2023-08-31T01:00:22;24855.84;;;-147.39;78.89
3524;BME280;1776;53.330;11.498;2023-08-31T01:03:05;24811.13;;;-147.39;79.70
3524;BME280;1776;53.330;11.498;2023-08-31T01:05:40;24817.22;;;-147.39;79.65
3524;BME280;1776;53.330;11.498;2023-08-31T01:10:41;24764.34;;;-147.39;80.20
3524;BME280;1776;53.330;11.498;2023-08-31T01:13:15;24750.09;;;-147.39;80.71
3524;BME280;1776;53.330;11.498;2023-08-31T01:16:05;24739.94;;;-147.39;81.34
3524;BME280;1776;53.330;11.498;2023-08-31T01:18:32;24805.00;;;-147.39;81.08
3524;BME280;1776;53.330;11.498;2023-08-31T01:21:25;24723.66;;;-147.39;80.06
3524;BME280;1776;53.330;11.498;2023-08-31T01:23:54;24790.78;;;-147.39;79.58
3524;BME280;1776;53.330;11.498;2023-08-31T01:26:21;24843.66;;;-147.39;79.61
3524;BME280;1776;53.330;11.498;2023-08-31T01:28:47;24831.44;;;-147.39;79.90
3524;BME280;1776;53.330;11.498;2023-08-31T01:31:13;24737.91;;;-147.39;80.40
3524;BME280;1776;53.330;11.498;2023-08-31T01:33:39;24711.47;;;-147.39;80.23
3524;BME280;1776;53.330;11.498;2023-08-31T01:38:58;24886.38;;;-147.39;79.43
3524;BME280;1776;53.330;11.498;2023-08-31T01:41:28;24764.34;;;-147.39;79.33
3524;BME280;1776;53.330;11.498;2023-08-31T01:43:54;24766.38;;;-147.39;79.30
3524;BME280;1776;53.330;11.498;2023-08-31T01:46:19;24699.28;;;-147.39;78.99
3524;BME280;1776;53.330;11.498;2023-08-31T01:48:45;24786.72;;;-147.39;78.61
3524;BME280;1776;53.330;11.498;2023-08-31T01:51:10;24851.78;;;-147.39;78.17
3524;BME280;1776;53.330;11.498;2023-08-31T01:53:35;24825.34;;;-147.39;77.70
3524;BME280;1776;53.330;11.498;2023-08-31T01:56:02;24819.25;;;-147.39;77.24
3524;BME280;1776;53.330;11.498;2023-08-31T01:58:27;24790.78;;;-147.39;77.26
3524;BME280;1776;53.330;11.498;2023-08-31T02:00:52;24813.16;;;-147.39;77.52
3524;BME280;1776;53.330;11.498;2023-08-31T02:03:18;24811.13;;;-147.39;77.61
3524;BME280;1776;53.330;11.498;2023-08-31T02:05:43;24786.72;;;-147.39;77.38
3524;BME280;1776;53.330;11.498;2023-08-31T02:08:08;24821.28;;;-147.39;77.71
3524;BME280;1776;53.330;11.498;2023-08-31T02:10:33;24746.03;;;-147.39;79.43
3524;BME280;1776;53.330;11.498;2023-08-31T02:12:59;24721.63;;;-147.39;79.08
3524;BME280;1776;53.330;11.498;2023-08-31T02:15:24;24741.97;;;-147.39;79.20
3524;BME280;1776;53.330;11.498;2023-08-31T02:17:49;24758.25;;;-147.39;79.30
3524;BME280;1776;53.330;11.498;2023-08-31T02:20:15;24703.34;;;-147.39;79.34
3524;BME280;1776;53.330;11.498;2023-08-31T02:22:40;24750.09;;;-147.39;79.11
3524;BME280;1776;53.330;11.498;2023-08-31T02:25:05;24587.41;;;-147.39;79.56
3524;BME280;1776;53.330;11.498;2023-08-31T02:27:31;24662.66;;;-147.39;80.23
3524;BME280;1776;53.330;11.498;2023-08-31T02:29:56;24666.72;;;-147.39;80.65
3524;BME280;1776;53.330;11.498;2023-08-31T02:32:22;24666.72;;;-147.39;80.41
3524;BME280;1776;53.330;11.498;2023-08-31T02:34:48;24678.94;;;-147.39;80.09
3524;BME280;1776;53.330;11.498;2023-08-31T02:37:13;24680.97;;;-147.39;80.04
3524;BME280;1776;53.330;11.498;2023-08-31T02:39:38;24721.63;;;-147.39;79.62
3524;BME280;1776;53.330;11.498;2023-08-31T02:42:05;24750.09;;;-147.39;79.10
3524;BME280;1776;53.330;11.498;2023-08-31T02:44:31;24683.00;;;-147.39;79.79
3524;BME280;1776;53.330;11.498;2023-08-31T02:46:56;24668.75;;;-147.39;80.19
3524;BME280;1776;53.330;11.498;2023-08-31T02:49:21;24680.97;;;-147.39;80.35
3524;BME280;1776;53.330;11.498;2023-08-31T02:51:46;24628.09;;;-147.39;80.86
3524;BME280;1776;53.330;11.498;2023-08-31T02:54:14;24619.97;;;-147.39;80.81
3524;BME280;1776;53.330;11.498;2023-08-31T02:56:39;24617.94;;;-147.39;80.75
3524;BME280;1776;53.330;11.498;2023-08-31T02:59:04;24613.84;;;-147.39;81.40
3524;BME280;1776;53.330;11.498;2023-08-31T03:01:29;24619.97;;;-147.39;81.23
3524;BME280;1776;53.330;11.498;2023-08-31T03:03:55;24591.50;;;-147.39;81.64
3524;BME280;1776;53.330;11.498;2023-08-31T03:06:20;24573.19;;;-147.39;81.77
3524;BME280;1776;53.330;11.498;2023-08-31T03:08:45;24571.16;;;-147.39;81.68
3524;BME280;1776;53.330;11.498;2023-08-31T03:11:11;24528.44;;;-147.39;81.67
3524;BME280;1776;53.330;11.498;2023-08-31T03:13:39;24565.06;;;-147.39;81.98
3524;BME280;1776;53.330;11.498;2023-08-31T03:16:04;24516.25;;;-147.39;82.84
3524;BME280;1776;53.330;11.498;2023-08-31T03:18:29;24510.16;;;-147.39;82.84
3524;BME280;1776;53.330;11.498;2023-08-31T03:20:55;24459.31;;;-147.39;82.82
3524;BME280;1776;53.330;11.498;2023-08-31T03:23:20;24518.28;;;-147.39;82.66
3524;BME280;1776;53.330;11.498;2023-08-31T03:25:46;24469.47;;;-147.39;82.49
3524;BME280;1776;53.330;11.498;2023-08-31T03:28:12;24475.59;;;-147.39;82.76
3524;BME280;1776;53.330;11.498;2023-08-31T03:30:37;24473.53;;;-147.39;82.83
3524;BME280;1776;53.330;11.498;2023-08-31T03:33:02;24432.88;;;-147.39;83.27
3524;BME280;1776;53.330;11.498;2023-08-31T03:35:28;24609.78;;;-147.39;82.80
3524;BME280;1776;53.330;11.498;2023-08-31T03:37:54;24449.16;;;-147.39;82.33
3524;BME280;1776;53.330;11.498;2023-08-31T03:40:19;23975.38;;;-147.39;81.78
3524;BME280;1776;53.330;11.498;2023-08-31T03:42:44;24469.47;;;-147.39;81.35
3524;BME280;1776;53.330;11.498;2023-08-31T03:45:11;24514.22;;;-147.39;80.71
3524;BME280;1776;53.330;11.498;2023-08-31T03:47:37;24518.28;;;-147.39;80.46
3524;BME280;1776;53.330;11.498;2023-08-31T03:50:02;24565.06;;;-147.39;79.74
3524;BME280;1776;53.330;11.498;2023-08-31T03:52:29;24516.25;;;-147.39;80.24
3524;BME280;1776;53.330;11.498;2023-08-31T03:54:54;24561.00;;;-147.39;79.55
3524;BME280;1776;53.330;11.498;2023-08-31T03:57:19;24603.69;;;-147.39;79.43
3524;BME280;1776;53.330;11.498;2023-08-31T03:59:45;24540.66;;;-147.39;79.30
3524;BME280;1776;53.330;11.498;2023-08-31T04:02:10;24587.41;;;-147.39;79.22
3524;BME280;1776;53.330;11.498;2023-08-31T04:04:36;24567.09;;;-147.39;79.72
3524;BME280;1776;53.330;11.498;2023-08-31T04:07:01;24532.50;;;-147.39;79.60
3524;BME280;1776;53.330;11.498;2023-08-31T04:09:26;24544.72;;;-147.39;80.14
3524;BME280;1776;53.330;11.498;2023-08-31T04:11:51;24508.13;;;-147.39;79.78
3524;BME280;1776;53.330;11.498;2023-08-31T04:14:17;24530.47;;;-147.39;80.00
3524;BME280;1776;53.330;11.498;2023-08-31T04:16:43;24524.38;;;-147.39;79.72
3524;BME280;1776;53.330;11.498;2023-08-31T04:19:09;24491.84;;;-147.39;79.97
3524;BME280;1776;53.330;11.498;2023-08-31T04:21:34;24506.09;;;-147.39;80.30
3524;BME280;1776;53.330;11.498;2023-08-31T04:23:59;24487.78;;;-147.39;80.22
3524;BME280;1776;53.330;11.498;2023-08-31T04:26:25;24524.38;;;-147.39;80.45
3524;BME280;1776;53.330;11.498;2023-08-31T04:28:50;24489.81;;;-147.39;80.33
3524;BME280;1776;53.330;11.498;2023-08-31T04:31:16;24481.69;;;-147.39;80.79
3524;BME280;1776;53.330;11.498;2023-08-31T04:33:41;24583.34;;;-147.39;80.86
3524;BME280;1776;53.330;11.498;2023-08-31T04:36:06;24481.69;;;-147.39;80.71
3524;BME280;1776;53.330;11.498;2023-08-31T04:38:32;24459.31;;;-147.39;80.62
3524;BME280;1776;53.330;11.498;2023-08-31T04:41:00;24497.94;;;-147.39;80.50
3524;BME280;1776;53.330;11.498;2023-08-31T04:43:26;24475.59;;;-147.39;80.06
3524;BME280;1776;53.330;11.498;2023-08-31T04:45:52;24483.72;;;-147.39;80.05
3524;BME280;1776;53.330;11.498;2023-08-31T04:48:18;24477.63;;;-147.39;80.13
3524;BME280;1776;53.330;11.498;2023-08-31T04:50:43;24479.66;;;-147.39;80.00
3524;BME280;1776;53.330;11.498;2023-08-31T04:53:08;24461.34;;;-147.39;79.91
3524;BME280;1776;53.330;11.498;2023-08-31T04:55:33;24483.72;;;-147.39;79.50
3524;BME280;1776;53.330;11.498;2023-08-31T04:57:59;24479.66;;;-147.39;79.60
3524;BME280;1776;53.330;11.498;2023-08-31T05:00:25;24528.44;;;-147.39;79.20
3524;BME280;1776;53.330;11.498;2023-08-31T05:02:50;24491.84;;;-147.39;79.16
3524;BME280;1776;53.330;11.498;2023-08-31T05:05:16;24493.88;;;-147.39;79.38
3524;BME280;1776;53.330;11.498;2023-08-31T05:07:43;24473.53;;;-147.39;79.43
3524;BME280;1776;53.330;11.498;2023-08-31T05:10:09;24481.69;;;-147.39;79.37
3524;BME280;1776;53.330;11.498;2023-08-31T05:12:34;24485.75;;;-147.39;79.35
3524;BME280;1776;53.330;11.498;2023-08-31T05:14:59;24502.00;;;-147.39;79.53
3524;BME280;1776;53.330;11.498;2023-08-31T05:17:25;24481.69;;;-147.39;79.28
3524;BME280;1776;53.330;11.498;2023-08-31T05:19:50;24689.09;;;-147.39;79.79
3524;BME280;1776;53.330;11.498;2023-08-31T05:22:15;24471.50;;;-147.39;80.34
3524;BME280;1776;53.330;11.498;2023-08-31T05:24:41;24410.50;;;-147.39;80.38
3524;BME280;1776;53.330;11.498;2023-08-31T05:27:06;24445.06;;;-147.39;80.37
3524;BME280;1776;53.330;11.498;2023-08-31T05:29:32;24436.94;;;-147.39;80.19
3524;BME280;1776;53.330;11.498;2023-08-31T05:31:57;24432.88;;;-147.39;80.25
3524;BME280;1776;53.330;11.498;2023-08-31T05:34:22;24396.28;;;-147.39;80.35
3524;BME280;1776;53.330;11.498;2023-08-31T05:36:50;24449.16;;;-147.39;80.20
3524;BME280;1776;53.330;11.498;2023-08-31T05:39:15;24467.44;;;-147.39;79.75
3524;BME280;1776;53.330;11.498;2023-08-31T05:41:42;24396.28;;;-147.39;79.86
3524;BME280;1776;53.330;11.498;2023-08-31T05:44:08;24436.94;;;-147.39;80.01
3524;BME280;1776;53.330;11.498;2023-08-31T05:46:33;24487.78;;;-147.39;80.10
3524;BME280;1776;53.330;11.498;2023-08-31T05:48:58;24426.78;;;-147.39;80.59
3524;BME280;1776;53.330;11.498;2023-08-31T05:51:24;24447.13;;;-147.39;80.25
3524;BME280;1776;53.330;11.498;2023-08-31T05:53:49;24424.75;;;-147.39;80.12
3524;BME280;1776;53.330;11.498;2023-08-31T05:56:14;24386.09;;;-147.39;80.25
3524;BME280;1776;53.330;11.498;2023-08-31T05:58:39;24390.19;;;-147.39;80.65
3524;BME280;1776;53.330;11.498;2023-08-31T06:01:05;24418.66;;;-147.39;80.20
3524;BME280;1776;53.330;11.498;2023-08-31T06:03:31;24406.44;;;-147.39;80.32
3524;BME280;1776;53.330;11.498;2023-08-31T06:05:57;24436.94;;;-147.39;80.40
3524;BME280;1776;53.330;11.498;2023-08-31T06:08:23;24388.13;;;-147.39;80.33
3524;BME280;1776;53.330;11.498;2023-08-31T06:10:48;24589.47;;;-147.39;80.16
3524;BME280;1776;53.330;11.498;2023-08-31T06:13:14;24573.19;;;-147.39;79.89
3524;BME280;1776;53.330;11.498;2023-08-31T06:15:39;24430.84;;;-147.39;79.97
3524;BME280;1776;53.330;11.498;2023-08-31T06:18:05;24396.28;;;-147.39;80.16
3524;BME280;1776;53.330;11.498;2023-08-31T06:20:30;24436.94;;;-147.39;80.16
3524;BME280;1776;53.330;11.498;2023-08-31T06:22:56;24390.19;;;-147.39;79.88
3524;BME280;1776;53.330;11.498;2023-08-31T06:25:21;24438.97;;;-147.39;79.66
3524;BME280;1776;53.330;11.498;2023-08-31T06:27:48;24404.41;;;-147.39;79.65
3524;BME280;1776;53.330;11.498;2023-08-31T06:30:13;24451.19;;;-147.39;79.42
3524;BME280;1776;53.330;11.498;2023-08-31T06:32:47;24512.19;;;-147.39;79.20
3524;BME280;1776;53.330;11.498;2023-08-31T06:35:13;24418.66;;;-147.39;79.03
3524;BME280;1776;53.330;11.498;2023-08-31T06:37:40;24443.03;;;-147.39;78.72
3524;BME280;1776;53.330;11.498;2023-08-31T06:40:06;24481.69;;;-147.39;78.82
3524;BME280;1776;53.330;11.498;2023-08-31T06:42:33;24438.97;;;-147.39;78.50
3524;BME280;1776;53.330;11.498;2023-08-31T06:44:58;24473.53;;;-147.39;78.46
3524;BME280;1776;53.330;11.498;2023-08-31T06:47:23;24487.78;;;-147.39;78.57
3524;BME280;1776;53.330;11.498;2023-08-31T06:49:49;24567.09;;;-147.39;78.21
3524;BME280;1776;53.330;11.498;2023-08-31T06:52:14;24499.97;;;-147.39;78.18
3524;BME280;1776;53.330;11.498;2023-08-31T06:54:41;24514.22;;;-147.39;77.62
3524;BME280;1776;53.330;11.498;2023-08-31T06:57:06;24526.41;;;-147.39;77.25
3524;BME280;1776;53.330;11.498;2023-08-31T06:59:31;24607.75;;;-147.39;77.07
3524;BME280;1776;53.330;11.498;2023-08-31T07:01:56;24516.25;;;-147.39;77.13
3524;BME280;1776;53.330;11.498;2023-08-31T07:04:22;24581.31;;;-147.39;76.70
3524;BME280;1776;53.330;11.498;2023-08-31T07:06:47;24561.00;;;-147.39;76.56
3524;BME280;1776;53.330;11.498;2023-08-31T07:09:12;24563.03;;;-147.39;76.10
3524;BME280;1776;53.330;11.498;2023-08-31T07:11:38;24605.72;;;-147.39;76.19
3524;BME280;1776;53.330;11.498;2023-08-31T07:14:03;24628.09;;;-147.39;76.64
3524;BME280;1776;53.330;11.498;2023-08-31T07:16:28;24577.25;;;-147.39;75.80
3524;BME280;1776;53.330;11.498;2023-08-31T07:18:53;24607.75;;;-147.39;74.84
3524;BME280;1776;53.330;11.498;2023-08-31T07:21:19;24628.09;;;-147.39;74.89
3524;BME280;1776;53.330;11.498;2023-08-31T07:23:44;24654.53;;;-147.39;74.99
3524;BME280;1776;53.330;11.498;2023-08-31T07:26:09;24622.00;;;-147.39;74.93
3524;BME280;1776;53.330;11.498;2023-08-31T07:28:35;24630.13;;;-147.39;74.91
3524;BME280;1776;53.330;11.498;2023-08-31T07:31:02;24660.63;;;-147.39;74.30
3524;BME280;1776;53.330;11.498;2023-08-31T07:33:28;24695.19;;;-147.39;74.80
3524;BME280;1776;53.330;11.498;2023-08-31T07:35:55;24735.88;;;-147.39;74.15
3524;BME280;1776;53.330;11.498;2023-08-31T07:38:20;24534.56;;;-147.39;73.42
3524;BME280;1776;53.330;11.498;2023-08-31T07:40:46;24715.53;;;-147.39;73.40
3524;BME280;1776;53.330;11.498;2023-08-31T07:43:11;24741.97;;;-147.39;73.00
3524;BME280;1776;53.330;11.498;2023-08-31T07:45:37;24733.84;;;-147.39;72.59
3524;BME280;1776;53.330;11.498;2023-08-31T07:48:02;24746.03;;;-147.39;72.49
3524;BME280;1776;53.330;11.498;2023-08-31T07:50:28;24750.09;;;-147.39;72.38
3524;BME280;1776;53.330;11.498;2023-08-31T07:52:53;24788.75;;;-147.39;72.22
3524;BME280;1776;53.330;11.498;2023-08-31T07:55:18;24784.69;;;-147.39;72.48
3524;BME280;1776;53.330;11.498;2023-08-31T07:57:44;24778.56;;;-147.39;71.73
3524;BME280;1776;53.330;11.498;2023-08-31T08:00:09;24807.03;;;-147.39;71.90
3524;BME280;1776;53.330;11.498;2023-08-31T08:02:34;24825.34;;;-147.39;71.29
3524;BME280;1776;53.330;11.498;2023-08-31T08:05:00;24802.97;;;-147.39;70.52
3524;BME280;1776;53.330;11.498;2023-08-31T08:07:25;24969.75;;;-147.39;70.20
3524;BME280;1776;53.330;11.498;2023-08-31T08:09:50;24843.66;;;-147.39;69.80
3524;BME280;1776;53.330;11.498;2023-08-31T08:12:15;24843.66;;;-147.39;70.04
3524;BME280;1776;53.330;11.498;2023-08-31T08:14:41;24813.16;;;-147.39;69.09
3524;BME280;1776;53.330;11.498;2023-08-31T08:17:06;24829.41;;;-147.39;69.21
3524;BME280;1776;53.330;11.498;2023-08-31T08:19:31;24902.63;;;-147.39;68.92
3524;BME280;1776;53.330;11.498;2023-08-31T08:21:56;24894.50;;;-147.39;68.84
3524;BME280;1776;53.330;11.498;2023-08-31T08:24:22;24922.97;;;-147.39;68.79
3524;BME280;1776;53.330;11.498;2023-08-31T08:26:47;24983.97;;;-147.39;68.10
3524;BME280;1776;53.330;11.498;2023-08-31T08:29:12;24973.81;;;-147.39;66.91
3524;BME280;1776;53.330;11.498;2023-08-31T08:31:38;24965.69;;;-147.39;66.80
3524;BME280;1776;53.330;11.498;2023-08-31T08:34:03;25014.47;;;-147.39;66.80
3524;BME280;1776;53.330;11.498;2023-08-31T08:36:29;24994.16;;;-147.39;66.97
3524;BME280;1776;53.330;11.498;2023-08-31T08:38:54;25004.31;;;-147.39;66.72
3524;BME280;1776;53.330;11.498;2023-08-31T08:41:29;25051.09;;;-147.39;66.59
3524;BME280;1776;53.330;11.498;2023-08-31T08:43:56;25024.66;;;-147.39;66.12
3524;BME280;1776;53.330;11.498;2023-08-31T08:46:26;25067.38;;;-147.39;65.53
3524;BME280;1776;53.330;11.498;2023-08-31T08:48:53;25018.56;;;-147.39;65.76
3524;BME280;1776;53.330;11.498;2023-08-31T08:51:20;25028.72;;;-147.39;65.12
3524;BME280;1776;53.330;11.498;2023-08-31T08:53:46;25065.31;;;-147.39;65.48
3524;BME280;1776;53.330;11.498;2023-08-31T08:56:11;25045.00;;;-147.39;65.00
3524;BME280;1776;53.330;11.498;2023-08-31T08:58:37;25053.13;;;-147.39;65.27
3524;BME280;1776;53.330;11.498;2023-08-31T09:01:03;25047.03;;;-147.39;65.72
3524;BME280;1776;53.330;11.498;2023-08-31T09:03:30;25103.97;;;-147.39;65.18
3524;BME280;1776;53.330;11.498;2023-08-31T09:05:55;25124.31;;;-147.39;64.58
3524;BME280;1776;53.330;11.498;2023-08-31T09:08:27;25146.69;;;-147.39;63.16
3524;BME280;1776;53.330;11.498;2023-08-31T09:10:57;25219.91;;;-147.39;62.40
3524;BME280;1776;53.330;11.498;2023-08-31T09:13:26;24831.44;;;-147.39;61.93
3524;BME280;1776;53.330;11.498;2023-08-31T09:15:54;25248.38;;;-147.39;61.28
3524;BME280;1776;53.330;11.498;2023-08-31T09:18:24;25244.31;;;-147.39;61.98
3524;BME280;1776;53.330;11.498;2023-08-31T09:20:49;25278.88;;;-147.39;61.87
3524;BME280;1776;53.330;11.498;2023-08-31T09:23:15;25274.81;;;-147.39;61.89
3524;BME280;1776;53.330;11.498;2023-08-31T09:25:52;25289.06;;;-147.39;61.04
3524;BME280;1776;53.330;11.498;2023-08-31T09:28:20;25260.56;;;-147.39;61.12
3524;BME280;1776;53.330;11.498;2023-08-31T09:30:47;25270.75;;;-147.39;61.69
3524;BME280;1776;53.330;11.498;2023-08-31T09:33:14;25289.06;;;-147.39;61.84
3524;BME280;1776;53.330;11.498;2023-08-31T09:35:56;25201.59;;;-147.39;62.17
3524;BME280;1776;53.330;11.498;2023-08-31T09:38:21;25270.75;;;-147.39;61.83
3524;BME280;1776;53.330;11.498;2023-08-31T09:40:47;25191.44;;;-147.39;62.29
3524;BME280;1776;53.330;11.498;2023-08-31T09:43:18;25260.56;;;-147.39;62.19
3524;BME280;1776;53.330;11.498;2023-08-31T09:45:45;25203.63;;;-147.39;62.48
3524;BME280;1776;53.330;11.498;2023-08-31T09:48:11;25132.44;;;-147.39;62.67
3524;BME280;1776;53.330;11.498;2023-08-31T09:50:37;25203.63;;;-147.39;62.76
3524;BME280;1776;53.330;11.498;2023-08-31T09:53:04;25207.69;;;-147.39;63.05
3524;BME280;1776;53.330;11.498;2023-08-31T09:55:31;25223.97;;;-147.39;63.33
3524;BME280;1776;53.330;11.498;2023-08-31T09:57:58;25282.94;;;-147.39;62.12
3524;BME280;1776;53.330;11.498;2023-08-31T10:00:28;25488.38;;;-147.39;61.00
3524;BME280;1776;53.330;11.498;2023-08-31T10:02:56;25543.28;;;-147.39;60.12
3524;BME280;1776;53.330;11.498;2023-08-31T10:05:22;25419.22;;;-147.39;59.76
3524;BME280;1776;53.330;11.498;2023-08-31T10:07:48;25472.09;;;-147.39;58.07
3524;BME280;1776;53.330;11.498;2023-08-31T10:10:15;25539.22;;;-147.39;57.46
3524;BME280;1776;53.330;11.498;2023-08-31T10:12:41;25504.66;;;-147.39;53.09
3524;BME280;1776;53.330;11.498;2023-08-31T10:15:08;25569.75;;;-147.39;52.54
3524;BME280;1776;53.330;11.498;2023-08-31T10:17:34;25565.66;;;-147.39;53.65
3524;BME280;1776;53.330;11.498;2023-08-31T10:19:59;25563.63;;;-147.39;54.02
3524;BME280;1776;53.330;11.498;2023-08-31T10:22:25;25600.25;;;-147.39;54.83
3524;BME280;1776;53.330;11.498;2023-08-31T10:25:01;25661.28;;;-147.39;54.36
3524;BME280;1776;53.330;11.498;2023-08-31T10:27:35;25730.44;;;-147.39;53.38
3524;BME280;1776;53.330;11.498;2023-08-31T10:30:16;25744.66;;;-147.39;53.36
3524;BME280;1776;53.330;11.498;2023-08-31T10:33:19;25683.66;;;-147.39;52.82
3524;BME280;1776;53.330;11.498;2023-08-31T10:38:14;25634.81;;;-147.39;54.65
3524;BME280;1776;53.330;11.498;2023-08-31T10:40:39;25647.03;;;-147.39;54.54
3524;BME280;1776;53.330;11.498;2023-08-31T10:43:14;25498.53;;;-147.39;54.26
3524;BME280;1776;53.330;11.498;2023-08-31T10:45:44;25789.41;;;-147.39;54.30
3524;BME280;1776;53.330;11.498;2023-08-31T10:48:09;25777.22;;;-147.39;54.20
3524;BME280;1776;53.330;11.498;2023-08-31T10:50:41;25846.38;;;-147.39;53.83
3524;BME280;1776;53.330;11.498;2023-08-31T10:53:09;25872.81;;;-147.39;51.39
3524;BME280;1776;53.330;11.498;2023-08-31T10:55:52;25956.22;;;-147.39;50.90
3524;BME280;1776;53.330;11.498;2023-08-31T10:58:18;25933.84;;;-147.39;51.48
3524;BME280;1776;53.330;11.498;2023-08-31T11:01:01;25880.97;;;-147.39;50.87
3524;BME280;1776;53.330;11.498;2023-08-31T11:03:29;25832.13;;;-147.39;52.72
3524;BME280;1776;53.330;11.498;2023-08-31T11:05:55;25913.50;;;-147.39;53.20
3524;BME280;1776;53.330;11.498;2023-08-31T11:08:24;25775.19;;;-147.39;53.76
3524;BME280;1776;53.330;11.498;2023-08-31T11:10:50;25899.25;;;-147.39;54.34
3524;BME280;1776;53.330;11.498;2023-08-31T11:13:18;25885.03;;;-147.39;52.89
3524;BME280;1776;53.330;11.498;2023-08-31T11:15:47;25887.06;;;-147.39;53.29
3524;BME280;1776;53.330;11.498;2023-08-31T11:18:12;25801.63;;;-147.39;53.80
3524;BME280;1776;53.330;11.498;2023-08-31T11:20:42;25807.72;;;-147.39;54.81
3524;BME280;1776;53.330;11.498;2023-08-31T11:23:07;25504.66;;;-147.39;54.50
3524;BME280;1776;53.330;11.498;2023-08-31T11:25:33;25677.53;;;-147.39;55.37
3524;BME280;1776;53.330;11.498;2023-08-31T11:28:06;25634.81;;;-147.39;56.03
3524;BME280;1776;53.330;11.498;2023-08-31T11:30:32;25622.63;;;-147.39;55.79
3524;BME280;1776;53.330;11.498;2023-08-31T11:33:06;25561.59;;;-147.39;55.37
3524;BME280;1776;53.330;11.498;2023-08-31T11:35:35;25586.00;;;-147.39;54.34
3524;BME280;1776;53.330;11.498;2023-08-31T11:38:00;25583.97;;;-147.39;54.19
3524;BME280;1776;53.330;11.498;2023-08-31T11:40:26;25602.28;;;-147.39;54.79
3524;BME280;1776;53.330;11.498;2023-08-31T11:42:53;25614.50;;;-147.39;54.09
3524;BME280;1776;53.330;11.498;2023-08-31T11:45:18;25600.25;;;-147.39;53.98
3524;BME280;1776;53.330;11.498;2023-08-31T11:47:45;25594.16;;;-147.39;54.64
3524;BME280;1776;53.330;11.498;2023-08-31T11:50:11;25565.66;;;-147.39;55.09
3524;BME280;1776;53.330;11.498;2023-08-31T11:52:37;25549.41;;;-147.39;56.50
3524;BME280;1776;53.330;11.498;2023-08-31T11:55:10;25567.69;;;-147.39;56.77
3524;BME280;1776;53.330;11.498;2023-08-31T11:57:35;25543.28;;;-147.39;58.02
3524;BME280;1776;53.330;11.498;2023-08-31T12:00:02;25588.03;;;-147.39;58.52
3524;BME280;1776;53.330;11.498;2023-08-31T12:02:34;25549.41;;;-147.39;58.67
3524;BME280;1776;53.330;11.498;2023-08-31T12:04:59;25549.41;;;-147.39;59.06
3524;BME280;1776;53.330;11.498;2023-08-31T12:07:25;25541.25;;;-147.39;58.99
3524;BME280;1776;53.330;11.498;2023-08-31T12:09:50;25522.97;;;-147.39;59.69
3524;BME280;1776;53.330;11.498;2023-08-31T12:12:19;25514.81;;;-147.39;60.65
3524;BME280;1776;53.330;11.498;2023-08-31T12:14:45;25525.00;;;-147.39;60.78
3524;BME280;1776;53.330;11.498;2023-08-31T12:17:10;25512.78;;;-147.39;60.77
3524;BME280;1776;53.330;11.498;2023-08-31T12:19:38;25500.59;;;-147.39;60.93
3524;BME280;1776;53.330;11.498;2023-08-31T12:22:04;25488.38;;;-147.39;60.93
3524;BME280;1776;53.330;11.498;2023-08-31T12:24:37;25480.25;;;-147.39;60.71
3524;BME280;1776;53.330;11.498;2023-08-31T12:27:02;25490.41;;;-147.39;60.95
3524;BME280;1776;53.330;11.498;2023-08-31T12:29:28;25512.78;;;-147.39;60.18
3524;BME280;1776;53.330;11.498;2023-08-31T12:31:53;25533.13;;;-147.39;58.99
3524;BME280;1776;53.330;11.498;2023-08-31T12:34:18;25626.69;;;-147.39;57.65
3524;BME280;1776;53.330;11.498;2023-08-31T12:36:43;25604.31;;;-147.39;57.24
3524;BME280;1776;53.330;11.498;2023-08-31T12:39:09;25626.69;;;-147.39;57.68
3524;BME280;1776;53.330;11.498;2023-08-31T12:41:36;25638.91;;;-147.39;57.35
3524;BME280;1776;53.330;11.498;2023-08-31T12:44:02;25614.50;;;-147.39;57.82
3524;BME280;1776;53.330;11.498;2023-08-31T12:46:29;25622.63;;;-147.39;58.84
3524;BME280;1776;53.330;11.498;2023-08-31T12:48:54;25622.63;;;-147.39;56.91
3524;BME280;1776;53.330;11.498;2023-08-31T12:51:19;25673.47;;;-147.39;57.30
3524;BME280;1776;53.330;11.498;2023-08-31T12:53:45;25716.19;;;-147.39;56.67
3524;BME280;1776;53.330;11.498;2023-08-31T12:56:10;25671.44;;;-147.39;56.74